Kingston, Nevada
Current Conditions -  °F | °C
As of 12:53 AM on Friday 31 Oct 2014 (Local Time) from KLOL Reporting Station
Clear Clear  
Wind Chill: 37°   Ceiling: Unl
Heat Index: 41°   Visibility: 10mi
Dew Point: 22°   Wind: 6mph
Humidity: 47%   Direction: 360°N
Pressure: 29.91"   Gusts: NA
Location:  39.7407°N, 117.085°W
Report Text: KLOL 310753Z AUTO 36005KT 10SM CLR 05/M06 A2991 RMK AO2 SLP114 T00501056 402111033
Loading
Personal Weather Stations






























Interactive Weather Map
Tropical Storm Tracking
New forecast layout! Learn more

10-Day Weather Forecast

Advertisements
Track Severe Weather on mobile